Trondheim/Vaernes

Airport
ICAO code: 
ENVA
Summary
ICAO Region: 
EUR
Territory: 
Location: 
Trondheim, Norway,
Elevation: 
56 ft
Coordinates: 
Aerial View: 
63° 27' 28.086" N, 10° 55' 26.399" E
Metar
Observation
ENVA 211020Z VRB02KT 9999 FEW014 BKN042 02/00 Q1018 NOSIG RMK WIND 670FT 13003KT
Station
Trondheim / Vaernes
Date/Time
2022-01-21 10:20:00
Wind speed
02 kts
Lowest cloud amount
few clouds
Temperature
2°C
Dew point
0°C
Humidity
86%
QNH
1018 hPa
Weather condition
n/a

Description

International airport serving Trondheim, Norway.

Climatology

Temperate Marine climate/Oceanic climate (Köppen climate classification Cfb). Moderately cool summer and comparatively warm winter with a temperature range of only 14°C. Prevailing south-westerly winds from the Atlantic Ocean.

Runways

Designator Length Width Surface Rops
14/32 950 36 ASP No/No
13/31 1454 36 ASP No/No
9/27 2759 45 ASP Yes/Yes
Airport map: 
Aerial View: 

SKYbrary Partners:

Safety knowledge contributed by: